sensor_id;sensor_type;location;lat;lon;timestamp;pressure;altitude;pressure_sealevel;temperature;humidity
85224;BME280;75619;51.316;4.824;2024-01-16T00:01:20;100866.97;;;-0.06;100.00
85224;BME280;75619;51.316;4.824;2024-01-16T00:03:46;100868.66;;;-0.04;100.00
85224;BME280;75619;51.316;4.824;2024-01-16T00:06:11;100870.50;;;-0.07;100.00
85224;BME280;75619;51.316;4.824;2024-01-16T00:08:37;100872.34;;;-0.11;100.00
85224;BME280;75619;51.316;4.824;2024-01-16T00:11:05;100870.56;;;-0.10;100.00
85224;BME280;75619;51.316;4.824;2024-01-16T00:13:32;100868.03;;;-0.12;100.00
85224;BME280;75619;51.316;4.824;2024-01-16T00:15:58;100874.09;;;-0.11;100.00
85224;BME280;75619;51.316;4.824;2024-01-16T00:18:24;100874.03;;;-0.10;100.00
85224;BME280;75619;51.316;4.824;2024-01-16T00:20:49;100866.38;;;-0.14;100.00
85224;BME280;75619;51.316;4.824;2024-01-16T00:23:15;100867.19;;;-0.12;100.00
85224;BME280;75619;51.316;4.824;2024-01-16T00:25:40;100879.34;;;-0.13;100.00
85224;BME280;75619;51.316;4.824;2024-01-16T00:28:07;100868.03;;;-0.12;100.00
85224;BME280;75619;51.316;4.824;2024-01-16T00:30:32;100865.44;;;-0.12;100.00
85224;BME280;75619;51.316;4.824;2024-01-16T00:32:59;100867.94;;;-0.09;100.00
85224;BME280;75619;51.316;4.824;2024-01-16T00:35:25;100865.38;;;-0.10;100.00
85224;BME280;75619;51.316;4.824;2024-01-16T00:37:50;100871.50;;;-0.11;100.00
85224;BME280;75619;51.316;4.824;2024-01-16T00:40:16;100871.53;;;-0.13;100.00
85224;BME280;75619;51.316;4.824;2024-01-16T00:42:42;100864.50;;;-0.09;100.00
85224;BME280;75619;51.316;4.824;2024-01-16T00:45:07;100867.75;;;-0.03;100.00
85224;BME280;75619;51.316;4.824;2024-01-16T00:47:33;100870.22;;;0.02;100.00
85224;BME280;75619;51.316;4.824;2024-01-16T00:49:58;100872.03;;;0.00;100.00
85224;BME280;75619;51.316;4.824;2024-01-16T00:52:26;100867.75;;;-0.03;100.00
85224;BME280;75619;51.316;4.824;2024-01-16T00:54:52;100872.03;;;-0.02;100.00
85224;BME280;75619;51.316;4.824;2024-01-16T00:57:17;100867.66;;;0.00;100.00
85224;BME280;75619;51.316;4.824;2024-01-16T00:59:45;100879.91;;;-0.03;100.00
85224;BME280;75619;51.316;4.824;2024-01-16T01:02:11;100870.91;;;0.07;100.00
85224;BME280;75619;51.316;4.824;2024-01-16T01:04:37;100864.06;;;0.05;100.00
85224;BME280;75619;51.316;4.824;2024-01-16T01:07:03;100870.25;;;0.00;100.00
85224;BME280;75619;51.316;4.824;2024-01-16T01:09:29;100873.69;;;0.01;100.00
85224;BME280;75619;51.316;4.824;2024-01-16T01:11:54;100875.31;;;0.05;100.00
85224;BME280;75619;51.316;4.824;2024-01-16T01:14:20;100872.75;;;0.04;100.00
85224;BME280;75619;51.316;4.824;2024-01-16T01:16:46;100864.91;;;0.05;100.00
85224;BME280;75619;51.316;4.824;2024-01-16T01:19:11;100867.19;;;0.16;100.00
85224;BME280;75619;51.316;4.824;2024-01-16T01:21:38;100863.88;;;0.11;100.00
85224;BME280;75619;51.316;4.824;2024-01-16T01:24:03;100861.31;;;0.09;100.00
85224;BME280;75619;51.316;4.824;2024-01-16T01:26:29;100863.97;;;0.08;100.00
85224;BME280;75619;51.316;4.824;2024-01-16T01:28:54;100860.47;;;0.09;100.00
85224;BME280;75619;51.316;4.824;2024-01-16T01:31:20;100857.22;;;0.02;100.00
85224;BME280;75619;51.316;4.824;2024-01-16T01:33:46;100865.84;;;0.03;100.00
85224;BME280;75619;51.316;4.824;2024-01-16T01:36:12;100860.66;;;0.03;100.00
85224;BME280;75619;51.316;4.824;2024-01-16T01:38:38;100861.44;;;0.06;100.00
85224;BME280;75619;51.316;4.824;2024-01-16T01:41:03;100859.72;;;0.05;100.00
85224;BME280;75619;51.316;4.824;2024-01-16T01:43:32;100867.63;;;0.02;100.00
85224;BME280;75619;51.316;4.824;2024-01-16T01:46:13;100862.03;;;-0.14;100.00
85224;BME280;75619;51.316;4.824;2024-01-16T01:48:41;100871.00;;;-0.24;100.00
85224;BME280;75619;51.316;4.824;2024-01-16T01:51:08;100864.38;;;-0.34;100.00
85224;BME280;75619;51.316;4.824;2024-01-16T01:53:34;100861.78;;;-0.34;100.00
85224;BME280;75619;51.316;4.824;2024-01-16T01:56:05;100868.09;;;-0.42;100.00
85224;BME280;75619;51.316;4.824;2024-01-16T01:58:34;100870.75;;;-0.44;100.00
85224;BME280;75619;51.316;4.824;2024-01-16T02:01:03;100873.66;;;-0.54;100.00
85224;BME280;75619;51.316;4.824;2024-01-16T02:03:44;100879.03;;;-0.62;100.00
85224;BME280;75619;51.316;4.824;2024-01-16T02:06:13;100882.69;;;-0.67;100.00
85224;BME280;75619;51.316;4.824;2024-01-16T02:08:42;100888.00;;;-0.72;100.00
85224;BME280;75619;51.316;4.824;2024-01-16T02:11:08;100883.78;;;-0.76;100.00
85224;BME280;75619;51.316;4.824;2024-01-16T02:13:34;100888.34;;;-0.84;100.00
85224;BME280;75619;51.316;4.824;2024-01-16T02:16:00;100884.22;;;-0.91;100.00
85224;BME280;75619;51.316;4.824;2024-01-16T02:18:26;100879.16;;;-0.97;100.00
85224;BME280;75619;51.316;4.824;2024-01-16T02:20:52;100878.50;;;-1.04;100.00
85224;BME280;75619;51.316;4.824;2024-01-16T02:23:27;100880.38;;;-1.09;100.00
85224;BME280;75619;51.316;4.824;2024-01-16T02:25:54;100870.06;;;-1.12;100.00
85224;BME280;75619;51.316;4.824;2024-01-16T02:28:20;100871.53;;;-1.02;100.00
85224;BME280;75619;51.316;4.824;2024-01-16T02:30:45;100871.53;;;-1.02;100.00
85224;BME280;75619;51.316;4.824;2024-01-16T02:33:11;100870.75;;;-1.05;100.00
85224;BME280;75619;51.316;4.824;2024-01-16T02:35:37;100876.91;;;-1.09;100.00
85224;BME280;75619;51.316;4.824;2024-01-16T02:38:03;100881.09;;;-1.04;100.00
85224;BME280;75619;51.316;4.824;2024-01-16T02:40:29;100867.28;;;-1.04;100.00
85224;BME280;75619;51.316;4.824;2024-01-16T02:42:54;100866.41;;;-1.05;100.00
85224;BME280;75619;51.316;4.824;2024-01-16T02:45:20;100873.09;;;-0.96;100.00
85224;BME280;75619;51.316;4.824;2024-01-16T02:47:46;100878.88;;;-0.85;100.00
85224;BME280;75619;51.316;4.824;2024-01-16T02:50:11;100864.94;;;-0.83;100.00
85224;BME280;75619;51.316;4.824;2024-01-16T02:52:37;100862.03;;;-0.72;100.00
85224;BME280;75619;51.316;4.824;2024-01-16T02:55:03;100864.81;;;-0.78;100.00
85224;BME280;75619;51.316;4.824;2024-01-16T02:57:30;100866.59;;;-0.80;100.00
85224;BME280;75619;51.316;4.824;2024-01-16T02:59:55;100871.84;;;-0.82;100.00
85224;BME280;75619;51.316;4.824;2024-01-16T03:02:21;100873.69;;;-0.85;100.00
85224;BME280;75619;51.316;4.824;2024-01-16T03:04:49;100870.16;;;-0.84;100.00
85224;BME280;75619;51.316;4.824;2024-01-16T03:07:15;100864.81;;;-0.78;100.00
85224;BME280;75619;51.316;4.824;2024-01-16T03:09:40;100867.50;;;-0.81;100.00
85224;BME280;75619;51.316;4.824;2024-01-16T03:12:06;100864.28;;;-0.89;100.00
85224;BME280;75619;51.316;4.824;2024-01-16T03:14:32;100863.53;;;-0.94;100.00
85224;BME280;75619;51.316;4.824;2024-01-16T03:17:02;100863.38;;;-0.88;100.00
85224;BME280;75619;51.316;4.824;2024-01-16T03:19:28;100868.69;;;-0.93;100.00
85224;BME280;75619;51.316;4.824;2024-01-16T03:21:54;100870.50;;;-0.96;100.00
85224;BME280;75619;51.316;4.824;2024-01-16T03:24:20;100868.09;;;-1.02;100.00
85224;BME280;75619;51.316;4.824;2024-01-16T03:26:46;100862.16;;;-1.07;100.00
85224;BME280;75619;51.316;4.824;2024-01-16T03:29:11;100854.47;;;-1.10;100.00
85224;BME280;75619;51.316;4.824;2024-01-16T03:31:37;100862.13;;;-1.06;100.00
85224;BME280;75619;51.316;4.824;2024-01-16T03:34:02;100854.50;;;-1.12;100.00
85224;BME280;75619;51.316;4.824;2024-01-16T03:36:28;100859.78;;;-1.15;100.00
85224;BME280;75619;51.316;4.824;2024-01-16T03:38:53;100853.09;;;-1.23;100.00
85224;BME280;75619;51.316;4.824;2024-01-16T03:41:19;100847.09;;;-1.25;100.00
85224;BME280;75619;51.316;4.824;2024-01-16T03:43:45;100851.53;;;-1.30;100.00
85224;BME280;75619;51.316;4.824;2024-01-16T03:46:11;100850.88;;;-1.38;100.00
85224;BME280;75619;51.316;4.824;2024-01-16T03:48:36;100845.16;;;-1.49;100.00
85224;BME280;75619;51.316;4.824;2024-01-16T03:51:02;100845.09;;;-1.48;100.00
85224;BME280;75619;51.316;4.824;2024-01-16T03:53:28;100854.59;;;-1.48;100.00
85224;BME280;75619;51.316;4.824;2024-01-16T03:55:53;100847.75;;;-1.51;100.00
85224;BME280;75619;51.316;4.824;2024-01-16T03:58:19;100846.13;;;-1.55;100.00
85224;BME280;75619;51.316;4.824;2024-01-16T04:00:45;100842.78;;;-1.58;100.00
85224;BME280;75619;51.316;4.824;2024-01-16T04:03:11;100841.81;;;-1.54;100.00
85224;BME280;75619;51.316;4.824;2024-01-16T04:05:37;100838.34;;;-1.53;100.00
85224;BME280;75619;51.316;4.824;2024-01-16T04:08:02;100835.69;;;-1.52;100.00
85224;BME280;75619;51.316;4.824;2024-01-16T04:10:28;100833.22;;;-1.56;100.00
85224;BME280;75619;51.316;4.824;2024-01-16T04:12:53;100839.22;;;-1.54;100.00
85224;BME280;75619;51.316;4.824;2024-01-16T04:15:19;100836.63;;;-1.54;100.00
85224;BME280;75619;51.316;4.824;2024-01-16T04:17:45;100825.59;;;-1.63;100.00
85224;BME280;75619;51.316;4.824;2024-01-16T04:20:11;100825.75;;;-1.69;100.00
85224;BME280;75619;51.316;4.824;2024-01-16T04:22:36;100829.09;;;-1.63;100.00
85224;BME280;75619;51.316;4.824;2024-01-16T04:25:02;100821.44;;;-1.68;100.00
85224;BME280;75619;51.316;4.824;2024-01-16T04:27:33;100818.78;;;-1.67;100.00
85224;BME280;75619;51.316;4.824;2024-01-16T04:29:59;100820.53;;;-1.67;100.00
85224;BME280;75619;51.316;4.824;2024-01-16T04:32:24;100811.22;;;-1.74;100.00
85224;BME280;75619;51.316;4.824;2024-01-16T04:34:50;100810.56;;;-1.82;100.00
85224;BME280;75619;51.316;4.824;2024-01-16T04:37:15;100812.16;;;-1.77;100.00
85224;BME280;75619;51.316;4.824;2024-01-16T04:39:41;100808.63;;;-1.74;100.00
85224;BME280;75619;51.316;4.824;2024-01-16T04:42:06;100807.63;;;-1.69;100.00
85224;BME280;75619;51.316;4.824;2024-01-16T04:44:32;100800.66;;;-1.67;100.00
85224;BME280;75619;51.316;4.824;2024-01-16T04:46:57;100802.47;;;-1.70;100.00
85224;BME280;75619;51.316;4.824;2024-01-16T04:49:23;100800.81;;;-1.73;100.00
85224;BME280;75619;51.316;4.824;2024-01-16T04:51:49;100803.44;;;-1.74;100.00
85224;BME280;75619;51.316;4.824;2024-01-16T04:54:15;100810.38;;;-1.75;100.00
85224;BME280;75619;51.316;4.824;2024-01-16T04:56:40;100806.88;;;-1.74;100.00
85224;BME280;75619;51.316;4.824;2024-01-16T04:59:06;100800.03;;;-1.76;100.00
85224;BME280;75619;51.316;4.824;2024-01-16T05:01:31;100801.84;;;-1.80;100.00
85224;BME280;75619;51.316;4.824;2024-01-16T05:03:59;100796.66;;;-1.78;100.00
85224;BME280;75619;51.316;4.824;2024-01-16T05:06:24;100788.00;;;-1.79;100.00
85224;BME280;75619;51.316;4.824;2024-01-16T05:08:50;100794.06;;;-1.80;100.00
85224;BME280;75619;51.316;4.824;2024-01-16T05:11:15;100796.66;;;-1.80;100.00
85224;BME280;75619;51.316;4.824;2024-01-16T05:13:41;100795.84;;;-1.80;100.00
85224;BME280;75619;51.316;4.824;2024-01-16T05:16:06;100793.34;;;-1.85;100.00
85224;BME280;75619;51.316;4.824;2024-01-16T05:18:33;100786.41;;;-1.84;100.00
85224;BME280;75619;51.316;4.824;2024-01-16T05:20:59;100787.50;;;-1.93;100.00
85224;BME280;75619;51.316;4.824;2024-01-16T05:23:24;100791.84;;;-1.93;100.00
85224;BME280;75619;51.316;4.824;2024-01-16T05:25:50;100787.41;;;-1.90;100.00
85224;BME280;75619;51.316;4.824;2024-01-16T05:28:16;100785.84;;;-1.95;100.00
85224;BME280;75619;51.316;4.824;2024-01-16T05:30:42;100776.25;;;-1.92;100.00
85224;BME280;75619;51.316;4.824;2024-01-16T05:33:08;100787.53;;;-1.94;100.00
85224;BME280;75619;51.316;4.824;2024-01-16T05:35:34;100784.13;;;-1.96;100.00
85224;BME280;75619;51.316;4.824;2024-01-16T05:37:59;100783.41;;;-2.03;100.00
85224;BME280;75619;51.316;4.824;2024-01-16T05:40:25;100785.28;;;-2.08;100.00
85224;BME280;75619;51.316;4.824;2024-01-16T05:42:51;100789.44;;;-2.01;100.00
85224;BME280;75619;51.316;4.824;2024-01-16T05:45:18;100784.38;;;-2.07;100.00
85224;BME280;75619;51.316;4.824;2024-01-16T05:47:43;100781.94;;;-2.13;100.00
85224;BME280;75619;51.316;4.824;2024-01-16T05:50:09;100783.66;;;-2.12;100.00
85224;BME280;75619;51.316;4.824;2024-01-16T05:52:35;100781.22;;;-2.18;100.00
85224;BME280;75619;51.316;4.824;2024-01-16T05:55:01;100783.69;;;-2.13;100.00
85224;BME280;75619;51.316;4.824;2024-01-16T05:57:28;100789.72;;;-2.13;100.00
85224;BME280;75619;51.316;4.824;2024-01-16T05:59:54;100782.84;;;-2.14;100.00
85224;BME280;75619;51.316;4.824;2024-01-16T06:02:20;100786.25;;;-2.12;100.00
85224;BME280;75619;51.316;4.824;2024-01-16T06:04:45;100793.97;;;-2.10;100.00
85224;BME280;75619;51.316;4.824;2024-01-16T06:07:11;100790.63;;;-2.14;100.00
85224;BME280;75619;51.316;4.824;2024-01-16T06:09:40;100789.78;;;-2.16;100.00
85224;BME280;75619;51.316;4.824;2024-01-16T06:12:06;100780.31;;;-2.15;100.00
85224;BME280;75619;51.316;4.824;2024-01-16T06:14:33;100786.19;;;-2.10;100.00
85224;BME280;75619;51.316;4.824;2024-01-16T06:16:58;100792.28;;;-2.13;100.00
85224;BME280;75619;51.316;4.824;2024-01-16T06:19:24;100779.41;;;-2.14;100.00
85224;BME280;75619;51.316;4.824;2024-01-16T06:21:49;100777.66;;;-2.14;100.00
85224;BME280;75619;51.316;4.824;2024-01-16T06:24:15;100777.56;;;-2.11;100.00
85224;BME280;75619;51.316;4.824;2024-01-16T06:26:41;100772.38;;;-2.09;100.00
85224;BME280;75619;51.316;4.824;2024-01-16T06:29:07;100774.06;;;-2.08;100.00
85224;BME280;75619;51.316;4.824;2024-01-16T06:31:33;100776.59;;;-2.05;100.00
85224;BME280;75619;51.316;4.824;2024-01-16T06:33:59;100774.66;;;-1.97;100.00
85224;BME280;75619;51.316;4.824;2024-01-16T06:36:25;100775.53;;;-1.97;100.00
85224;BME280;75619;51.316;4.824;2024-01-16T06:38:50;100776.34;;;-1.95;100.00
85224;BME280;75619;51.316;4.824;2024-01-16T06:41:16;100781.63;;;-1.99;100.00
85224;BME280;75619;51.316;4.824;2024-01-16T06:43:41;100774.47;;;-1.90;100.00
85224;BME280;75619;51.316;4.824;2024-01-16T06:46:07;100779.91;;;-1.99;100.00
85224;BME280;75619;51.316;4.824;2024-01-16T06:48:35;100783.09;;;-1.89;100.00
85224;BME280;75619;51.316;4.824;2024-01-16T06:51:02;100791.03;;;-1.95;100.00
85224;BME280;75619;51.316;4.824;2024-01-16T06:53:28;100790.25;;;-1.99;100.00
85224;BME280;75619;51.316;4.824;2024-01-16T06:55:53;100791.94;;;-1.98;100.00
85224;BME280;75619;51.316;4.824;2024-01-16T06:58:19;100788.50;;;-1.98;100.00
85224;BME280;75619;51.316;4.824;2024-01-16T07:00:46;100794.63;;;-2.02;100.00
85224;BME280;75619;51.316;4.824;2024-01-16T07:03:12;100785.94;;;-2.00;100.00
85224;BME280;75619;51.316;4.824;2024-01-16T07:05:38;100800.63;;;-1.99;100.00
85224;BME280;75619;51.316;4.824;2024-01-16T07:08:03;100795.44;;;-1.99;100.00
85224;BME280;75619;51.316;4.824;2024-01-16T07:10:29;100792.91;;;-2.02;100.00
85224;BME280;75619;51.316;4.824;2024-01-16T07:12:54;100791.31;;;-2.07;100.00
85224;BME280;75619;51.316;4.824;2024-01-16T07:15:21;100798.28;;;-2.11;100.00
85224;BME280;75619;51.316;4.824;2024-01-16T07:17:47;100794.88;;;-2.11;100.00
85224;BME280;75619;51.316;4.824;2024-01-16T07:20:13;100785.44;;;-2.14;100.00
85224;BME280;75619;51.316;4.824;2024-01-16T07:22:38;100795.84;;;-2.17;100.00
85224;BME280;75619;51.316;4.824;2024-01-16T07:25:07;100791.31;;;-2.07;100.00
85224;BME280;75619;51.316;4.824;2024-01-16T07:27:33;100812.06;;;-2.09;100.00
85224;BME280;75619;51.316;4.824;2024-01-16T07:30:00;100799.91;;;-2.05;100.00
85224;BME280;75619;51.316;4.824;2024-01-16T07:32:25;100805.19;;;-2.10;100.00
85224;BME280;75619;51.316;4.824;2024-01-16T07:34:51;100800.06;;;-2.11;100.00
85224;BME280;75619;51.316;4.824;2024-01-16T07:37:18;100800.06;;;-2.13;100.00
85224;BME280;75619;51.316;4.824;2024-01-16T07:39:44;100808.75;;;-2.14;100.00
85224;BME280;75619;51.316;4.824;2024-01-16T07:42:10;100810.41;;;-2.11;100.00
85224;BME280;75619;51.316;4.824;2024-01-16T07:44:36;100797.28;;;-2.04;100.00
85224;BME280;75619;51.316;4.824;2024-01-16T07:47:02;100795.50;;;-2.02;100.00
85224;BME280;75619;51.316;4.824;2024-01-16T07:49:28;100798.94;;;-2.01;100.00
85224;BME280;75619;51.316;4.824;2024-01-16T07:51:54;100804.03;;;-1.98;100.00
85224;BME280;75619;51.316;4.824;2024-01-16T07:54:19;100810.81;;;-1.93;100.00
85224;BME280;75619;51.316;4.824;2024-01-16T07:56:45;100804.03;;;-1.97;100.00
85224;BME280;75619;51.316;4.824;2024-01-16T07:59:10;100811.66;;;-1.92;100.00
85224;BME280;75619;51.316;4.824;2024-01-16T08:01:36;100816.16;;;-1.99;100.00
85224;BME280;75619;51.316;4.824;2024-01-16T08:04:03;100813.91;;;-1.79;100.00
85224;BME280;75619;51.316;4.824;2024-01-16T08:06:29;100814.13;;;-1.88;100.00
85224;BME280;75619;51.316;4.824;2024-01-16T08:08:55;100812.31;;;-1.84;100.00
85224;BME280;75619;51.316;4.824;2024-01-16T08:11:21;100815.84;;;-1.87;100.00
85224;BME280;75619;51.316;4.824;2024-01-16T08:13:47;100822.63;;;-1.81;100.00
85224;BME280;75619;51.316;4.824;2024-01-16T08:16:12;100818.03;;;-1.70;100.00
85224;BME280;75619;51.316;4.824;2024-01-16T08:18:38;100824.03;;;-1.70;100.00
85224;BME280;75619;51.316;4.824;2024-01-16T08:21:03;100832.50;;;-1.61;100.00
85224;BME280;75619;51.316;4.824;2024-01-16T08:23:29;100835.66;;;-1.50;100.00
85224;BME280;75619;51.316;4.824;2024-01-16T08:25:54;100832.13;;;-1.48;100.00
85224;BME280;75619;51.316;4.824;2024-01-16T08:28:20;100828.53;;;-1.42;100.00
85224;BME280;75619;51.316;4.824;2024-01-16T08:30:46;100828.53;;;-1.42;100.00
85224;BME280;75619;51.316;4.824;2024-01-16T08:33:12;100824.97;;;-1.38;100.00
85224;BME280;75619;51.316;4.824;2024-01-16T08:35:38;100837.09;;;-1.39;100.00
85224;BME280;75619;51.316;4.824;2024-01-16T08:38:04;100835.97;;;-1.30;100.00
85224;BME280;75619;51.316;4.824;2024-01-16T08:40:30;100835.91;;;-1.27;100.00
85224;BME280;75619;51.316;4.824;2024-01-16T08:42:55;100836.72;;;-1.25;100.00
85224;BME280;75619;51.316;4.824;2024-01-16T08:45:22;100839.88;;;-1.14;100.00
85224;BME280;75619;51.316;4.824;2024-01-16T08:47:47;100839.44;;;-0.99;100.00
85224;BME280;75619;51.316;4.824;2024-01-16T08:50:13;100837.47;;;-0.90;100.00
85224;BME280;75619;51.316;4.824;2024-01-16T08:52:40;100817.66;;;-0.92;100.00
85224;BME280;75619;51.316;4.824;2024-01-16T08:55:05;100825.94;;;-0.79;100.00
85224;BME280;75619;51.316;4.824;2024-01-16T08:57:31;100822.34;;;-0.75;100.00
85224;BME280;75619;51.316;4.824;2024-01-16T08:59:57;100826.44;;;-0.67;100.00
85224;BME280;75619;51.316;4.824;2024-01-16T09:02:23;100825.34;;;-0.60;100.00
85224;BME280;75619;51.316;4.824;2024-01-16T09:04:49;100818.09;;;-0.49;100.00
85224;BME280;75619;51.316;4.824;2024-01-16T09:07:18;100814.38;;;-0.40;100.00
85224;BME280;75619;51.316;4.824;2024-01-16T09:09:44;100807.81;;;-0.52;100.00
85224;BME280;75619;51.316;4.824;2024-01-16T09:12:09;100810.72;;;-0.62;100.00
85224;BME280;75619;51.316;4.824;2024-01-16T09:14:35;100807.94;;;-0.56;100.00
85224;BME280;75619;51.316;4.824;2024-01-16T09:17:01;100799.16;;;-0.52;100.00
85224;BME280;75619;51.316;4.824;2024-01-16T09:19:26;100793.19;;;-0.56;100.00
85224;BME280;75619;51.316;4.824;2024-01-16T09:21:52;100800.72;;;-0.47;100.00
85224;BME280;75619;51.316;4.824;2024-01-16T09:24:18;100802.31;;;-0.43;100.00
85224;BME280;75619;51.316;4.824;2024-01-16T09:26:44;100796.09;;;-0.37;100.00
85224;BME280;75619;51.316;4.824;2024-01-16T09:29:09;100799.66;;;-0.40;100.00
85224;BME280;75619;51.316;4.824;2024-01-16T09:31:35;100794.16;;;-0.31;100.00
85224;BME280;75619;51.316;4.824;2024-01-16T09:34:02;100802.31;;;-0.43;100.00
85224;BME280;75619;51.316;4.824;2024-01-16T09:36:29;100791.72;;;-0.35;100.00
85224;BME280;75619;51.316;4.824;2024-01-16T09:38:55;100795.41;;;-0.42;100.00
85224;BME280;75619;51.316;4.824;2024-01-16T09:41:20;100790.06;;;-0.38;100.00
85224;BME280;75619;51.316;4.824;2024-01-16T09:43:47;100793.59;;;-0.40;100.00
85224;BME280;75619;51.316;4.824;2024-01-16T09:46:15;100792.66;;;-0.38;100.00
85224;BME280;75619;51.316;4.824;2024-01-16T09:48:44;100793.59;;;-0.40;100.00
85224;BME280;75619;51.316;4.824;2024-01-16T09:51:11;100797.81;;;-0.36;100.00
85224;BME280;75619;51.316;4.824;2024-01-16T09:53:42;100797.75;;;-0.35;100.00
85224;BME280;75619;51.316;4.824;2024-01-16T09:56:14;100783.97;;;-0.37;100.00
85224;BME280;75619;51.316;4.824;2024-01-16T09:58:40;100788.03;;;-0.28;100.00
85224;BME280;75619;51.316;4.824;2024-01-16T10:01:06;100782.16;;;-0.35;100.00
85224;BME280;75619;51.316;4.824;2024-01-16T10:03:34;100786.97;;;-0.23;100.00
85224;BME280;75619;51.316;4.824;2024-01-16T10:06:04;100775.78;;;-0.25;100.00
85224;BME280;75619;51.316;4.824;2024-01-16T10:08:31;100781.63;;;-0.18;100.00
85224;BME280;75619;51.316;4.824;2024-01-16T10:10:57;100779.16;;;-0.21;100.00
85224;BME280;75619;51.316;4.824;2024-01-16T10:13:23;100782.13;;;-0.33;100.00
85224;BME280;75619;51.316;4.824;2024-01-16T10:15:50;100792.53;;;-0.33;100.00
85224;BME280;75619;51.316;4.824;2024-01-16T10:18:23;100777.56;;;-0.25;100.00
85224;BME280;75619;51.316;4.824;2024-01-16T10:20:52;100793.13;;;-0.25;100.00
85224;BME280;75619;51.316;4.824;2024-01-16T10:23:28;100780.84;;;-0.20;100.00
85224;BME280;75619;51.316;4.824;2024-01-16T10:26:10;100782.34;;;-0.13;100.00
85224;BME280;75619;51.316;4.824;2024-01-16T10:28:37;100777.38;;;-0.21;100.00
85224;BME280;75619;51.316;4.824;2024-01-16T10:31:11;100771.91;;;-0.12;100.00
85224;BME280;75619;51.316;4.824;2024-01-16T10:33:38;100771.91;;;-0.12;100.00
85224;BME280;75619;51.316;4.824;2024-01-16T10:36:13;100775.97;;;-0.03;100.00
85224;BME280;75619;51.316;4.824;2024-01-16T10:38:39;100765.38;;;0.03;100.00
85224;BME280;75619;51.316;4.824;2024-01-16T10:41:13;100764.22;;;0.12;100.00
85224;BME280;75619;51.316;4.824;2024-01-16T10:43:40;100750.94;;;0.21;100.00
85224;BME280;75619;51.316;4.824;2024-01-16T10:46:17;100751.31;;;0.35;100.00
85224;BME280;75619;51.316;4.824;2024-01-16T10:49:01;100746.91;;;0.37;100.00
85224;BME280;75619;51.316;4.824;2024-01-16T10:51:28;100739.56;;;0.48;100.00
85224;BME280;75619;51.316;4.824;2024-01-16T10:54:04;100747.56;;;0.42;100.00
85224;BME280;75619;51.316;4.824;2024-01-16T10:56:36;100740.75;;;0.39;100.00
85224;BME280;75619;51.316;4.824;2024-01-16T10:59:30;100724.13;;;0.43;100.00
85224;BME280;75619;51.316;4.824;2024-01-16T11:02:01;100731.88;;;0.45;100.00
85224;BME280;75619;51.316;4.824;2024-01-16T11:04:30;100727.56;;;0.44;100.00
85224;BME280;75619;51.316;4.824;2024-01-16T11:06:56;100725.38;;;0.56;100.00
85224;BME280;75619;51.316;4.824;2024-01-16T11:09:22;100724.94;;;0.68;100.00
85224;BME280;75619;51.316;4.824;2024-01-16T11:11:50;100730.19;;;0.67;100.00
85224;BME280;75619;51.316;4.824;2024-01-16T11:14:19;100728.16;;;0.75;100.00
85224;BME280;75619;51.316;4.824;2024-01-16T11:16:48;100725.53;;;0.76;100.00
85224;BME280;75619;51.316;4.824;2024-01-16T11:19:15;100721.63;;;0.88;100.00
85224;BME280;75619;51.316;4.824;2024-01-16T11:21:43;100721.06;;;0.80;100.00
85224;BME280;75619;51.316;4.824;2024-01-16T11:24:09;100721.31;;;0.96;100.00
85224;BME280;75619;51.316;4.824;2024-01-16T11:26:35;100719.03;;;0.88;100.00
85224;BME280;75619;51.316;4.824;2024-01-16T11:31:52;100713.69;;;0.91;100.00
85224;BME280;75619;51.316;4.824;2024-01-16T11:37:30;100717.53;;;1.04;100.00
85224;BME280;75619;51.316;4.824;2024-01-16T11:42:43;100714.38;;;0.96;100.00
85224;BME280;75619;51.316;4.824;2024-01-16T11:50:36;100708.72;;;0.85;100.00
85224;BME280;75619;51.316;4.824;2024-01-16T11:53:01;100708.72;;;0.85;100.00
85224;BME280;75619;51.316;4.824;2024-01-16T11:55:29;100710.81;;;0.99;100.00
85224;BME280;75619;51.316;4.824;2024-01-16T12:00:57;100697.41;;;1.09;100.00
85224;BME280;75619;51.316;4.824;2024-01-16T12:03:23;100697.41;;;1.09;100.00
85224;BME280;75619;51.316;4.824;2024-01-16T12:05:59;100685.78;;;1.18;100.00
85224;BME280;75619;51.316;4.824;2024-01-16T12:08:25;100689.03;;;1.23;100.00
85224;BME280;75619;51.316;4.824;2024-01-16T12:10:50;100694.44;;;1.18;100.00
85224;BME280;75619;51.316;4.824;2024-01-16T12:13:16;100684.69;;;1.23;100.00
85224;BME280;75619;51.316;4.824;2024-01-16T12:15:42;100677.53;;;1.28;100.00
85224;BME280;75619;51.316;4.824;2024-01-16T12:18:08;100676.72;;;1.28;100.00
85224;BME280;75619;51.316;4.824;2024-01-16T12:20:36;100673.16;;;1.30;100.00
85224;BME280;75619;51.316;4.824;2024-01-16T12:23:06;100671.00;;;1.40;100.00
85224;BME280;75619;51.316;4.824;2024-01-16T12:25:37;100664.63;;;1.47;100.00
85224;BME280;75619;51.316;4.824;2024-01-16T12:28:07;100671.97;;;1.59;100.00
85224;BME280;75619;51.316;4.824;2024-01-16T12:30:37;100659.00;;;1.57;100.00
85224;BME280;75619;51.316;4.824;2024-01-16T12:33:06;100653.66;;;1.60;100.00
85224;BME280;75619;51.316;4.824;2024-01-16T12:35:43;100654.88;;;1.74;100.00
85224;BME280;75619;51.316;4.824;2024-01-16T12:38:13;100653.53;;;1.63;100.00
85224;BME280;75619;51.316;4.824;2024-01-16T12:40:53;100661.75;;;1.54;100.00
85224;BME280;75619;51.316;4.824;2024-01-16T12:43:19;100656.81;;;1.69;100.00
85224;BME280;75619;51.316;4.824;2024-01-16T12:45:45;100651.25;;;1.56;100.00
85224;BME280;75619;51.316;4.824;2024-01-16T12:48:11;100649.00;;;1.47;100.00
85224;BME280;75619;51.316;4.824;2024-01-16T12:50:37;100647.16;;;1.50;100.00
85224;BME280;75619;51.316;4.824;2024-01-16T12:53:11;100640.38;;;1.46;100.00
85224;BME280;75619;51.316;4.824;2024-01-16T12:55:39;100644.63;;;1.49;100.00
85224;BME280;75619;51.316;4.824;2024-01-16T12:58:17;100643.19;;;1.62;100.00